Accueil
METAR-TAF:

METAR-TAF

Aéroports :

Aéroport de Friedrichshafen

Friedrichshafen, Allemagne

latitude: 47-40N, longitude: 009-31E, altitude: 416 m

Observation

Le bulletin a été fait il y a 19 minutes, à 15:20 UTC
Vent 2 kt de direction variable
Température 30°C
Humidité 52%
Pression 1019 hPa
Visibilité 10 km ou plus
Quelques nuages à une hauteur de 5600 ft

METAR: EDNY 071520Z VRB02KT 9999 FEW056 30/19 Q1019

Heure: 17:39 (15:39 UTC)

Prévision

Le bulletin a été fait il y a 4 heures et 39 minutes, à 11:00 UTC
Prévision valable du 07 à 12 UTC au 08 à 12 UTC
Vent 5 kt de sud-ouest
Visibilité 10 km ou plus
pas de nuages en-dessous de 1500 mètres et pas de cumulonimbus.
Evoluant progressivement
du 07 à 15 UTC au 07 à 17 UTC
Vent 3 kt de nord-est

TAF: EDNY 071100Z 0712/0812 23005KT CAVOK BECMG 0715/0717 04003KT

Observations et prévisions météorologiques de plus de 4000 aéroports (messages METAR et TAF).

Les stations disponibles sont représentées par des disques jaunes et rouges sur la carte.

Passer la souris dessus pour voir le nom de la station.

Cliquer dessus pour voir les observations et prévisions météorologiques.

Pour changer de carte: cliquez sur les boutons verts avec une croix noire pour zoomer, sur le bouton vert avec un tiret pour effectuer un zoom arrière, ou sur les flèches vertes pour les cartes adjacentes.


METAR-TAF: